Seneca, WI (54654)

10:55 PM CDT on September 15, 2014 (GMT -0500)
Soldiers Grove area | Change Station
CLOSE
Current Station
Personal Weather Station
Location: Soldiers Grove, WI
Elevation: 1132 ft
Nearby Weather Stations

Elev 1132 ft 43.42 °N, 90.86 °W | Updated 19 seconds ago

Partly Cloudy
Partly Cloudy
45.7 °F
Feels Like 46 °F
N
1.0
Wind Variable Wind from NW
Gusts 1.0 mph

Today
High -- | Low -- °F
--% Chance of Precip.
Yesterday
High -- | Low -- °F
Precip. -- in
6:43 AM 7:13 PM
Waning Gibbous, 49% visible
Pressure 30.22 in
Visibility 0.8 miles
Clouds
Windchill 46 °F
Dew Point 45 °F
Humidity 97%
Rainfall 0.45 in
Snow Depth Not available.
UV Not available.
Pollen 2.60 out of 12
Air Quality Not available.
Flu Activity Not available.
SPECI KOVS 160314Z AUTO 00000KT 3/4SM BR VV001 07/06 A3022 RMK AO2 VIS 1/2V1 3/4 T00670056

More Conditions Fewer Conditions

Pressure 30.22 in
Visibility 0.8 miles
Clouds
Windchill 46 °F
Dew Point 45 °F
Humidity 97%
Rainfall 0.45 in
Snow Depth Not available.
UV Not available.
Pollen 2.60 out of 12
Air Quality Not available.
Flu Activity Not available.
SPECI KOVS 160314Z AUTO 00000KT 3/4SM BR VV001 07/06 A3022 RMK AO2 VIS 1/2V1 3/4 T00670056

More Conditions Fewer Conditions

10-Day Weather Forecast

Almanac

Astronomy

Sep. 15, 2014 Rise Set
Actual Time 6:43 AM CDT 7:13 PM CDT
Civil Twilight 6:14 AM CDT 7:42 PM CDT
Nautical Twilight 5:40 AM CDT 8:16 PM CDT
Astronomical Twilight 5:05 AM CDT 8:50 PM CDT
Moon 11:47 PM CDT (9/15) 1:53 PM CDT (9/15)
Length of Visible Light 13h 27m
Length of Day
12h 30m
Tomorrow will be 2m 55s shorter.
Waning Gibbous, 49% of the Moon is Illuminated
Today
Waning Gibbous
Sep 24
New
Oct 1
First Quarter
Oct 8
Full
Oct 15
Last Quarter

Today's Extremes

State Highs State Lows

Community

WunderPhotos

Upload Photos

1,753,693 photos uploaded!

Nearby

Snow Depth

Station Depth Elevation
No new snow has been reported.

Earthquake Activity

City Distance Mag. Time & Date
No recent earthquake activity has been reported nearby.
Minimum magnitude displayed is 2.5.

Coastal Water Temperatures

Place Temperature
No Stations Reporting

Nearby Weather Stations